Time;durP1;ratioP1;P1;durP2;ratioP2;P2;SDS_P1;SDS_P2;PMS_P1;PMS_P2;Temp;Humidity;BMP_temperature;BMP_pressure;BME280_temperature;BME280_humidity;BME280_pressure;Samples;Min_cycle;Max_cycle;Signal;HPM_P1;HPM_P2
2022/12/21 00:01:30;;;;;;;;;7.25;7.25;;;;;13.11;79.92;100896.63;4953532;28;45484;-75
2022/12/21 00:04:01;;;;;;;;;12.00;10.50;;;;;13.11;79.79;100893.13;4946044;28;45550;-74
2022/12/21 00:06:30;;;;;;;;;13.25;11.25;;;;;13.08;80.13;100883.44;4948913;28;45687;-76
2022/12/21 00:08:59;;;;;;;;;6.75;6.25;;;;;13.08;80.00;100895.81;4948133;28;45588;-76
2022/12/21 00:11:28;;;;;;;;;8.25;8.25;;;;;13.11;79.71;100901.91;4961565;28;45500;-76
2022/12/21 00:13:56;;;;;;;;;12.00;11.00;;;;;13.07;79.93;100892.28;4936057;28;45340;-75
2022/12/21 00:16:23;;;;;;;;;9.50;8.00;;;;;13.12;79.83;100902.78;4931279;28;45309;-75
2022/12/21 00:18:49;;;;;;;;;9.00;8.25;;;;;13.12;79.99;100897.50;4936224;28;45642;-76
2022/12/21 00:21:19;;;;;;;;;11.25;11.25;;;;;13.12;79.80;100897.50;4940852;28;45408;-76
2022/12/21 00:23:46;;;;;;;;;12.00;11.25;;;;;13.10;80.11;100889.59;4929267;28;45708;-76
2022/12/21 00:26:14;;;;;;;;;11.25;11.25;;;;;13.11;80.00;100890.47;4939404;28;45478;-76
2022/12/21 00:28:40;;;;;;;;;10.75;9.75;;;;;13.14;79.68;100895.72;4936698;28;45453;-76
2022/12/21 00:31:08;;;;;;;;;11.00;9.50;;;;;13.14;80.04;100898.38;4937988;28;45544;-77
2022/12/21 00:33:35;;;;;;;;;12.75;10.75;;;;;13.10;80.27;100891.38;4940845;28;45309;-76
2022/12/21 00:36:01;;;;;;;;;14.00;13.00;;;;;13.09;79.77;100887.84;4936363;28;47529;-77
2022/12/21 00:38:27;;;;;;;;;8.00;8.00;;;;;13.05;79.94;100882.63;4927535;28;45951;-77
2022/12/21 00:41:02;;;;;;;;;8.25;8.25;;;;;13.06;80.01;100882.59;4934482;28;45326;-77
2022/12/21 00:43:28;;;;;;;;;7.50;7.25;;;;;13.02;79.86;100881.75;4937403;28;45498;-78
2022/12/21 00:45:54;;;;;;;;;10.50;9.50;;;;;13.02;80.10;100883.53;4935617;28;47355;-76
2022/12/21 00:48:20;;;;;;;;;13.75;13.25;;;;;13.01;80.28;100887.91;4939242;28;45357;-78
2022/12/21 00:50:45;;;;;;;;;7.25;6.50;;;;;13.03;80.02;100882.63;4938503;28;45401;-78
2022/12/21 00:53:11;;;;;;;;;7.00;7.00;;;;;13.02;80.53;100886.19;4954030;28;45587;-77
2022/12/21 00:55:37;;;;;;;;;9.50;8.00;;;;;13.05;80.38;100890.56;4954661;28;47119;-77
2022/12/21 00:58:03;;;;;;;;;7.75;7.75;;;;;13.00;80.19;100883.53;4933755;28;45397;-76
2022/12/21 01:00:28;;;;;;;;;21.75;18.75;;;;;12.96;80.20;100889.78;4938612;28;45435;-77
2022/12/21 01:02:54;;;;;;;;;9.25;9.25;;;;;13.03;80.18;100898.47;4930061;28;45392;-77
2022/12/21 01:05:20;;;;;;;;;12.00;10.00;;;;;13.01;80.67;100892.34;4922174;28;46423;-75
2022/12/21 01:07:46;;;;;;;;;7.75;7.00;;;;;13.02;80.52;100897.63;4920287;28;45383;-76
2022/12/21 01:10:11;;;;;;;;;13.25;10.50;;;;;13.01;80.51;100898.50;4922042;28;45278;-75
2022/12/21 01:12:37;;;;;;;;;8.50;7.50;;;;;13.03;80.09;100907.28;4921700;28;45816;-75
2022/12/21 01:15:03;;;;;;;;;7.75;7.00;;;;;13.01;80.42;100902.91;4921649;28;45431;-75
2022/12/21 01:17:28;;;;;;;;;7.50;6.00;;;;;13.02;80.11;100897.63;4941425;28;45418;-75
2022/12/21 01:19:54;;;;;;;;;10.00;9.00;;;;;13.02;80.58;100907.31;4928131;28;45460;-75
2022/12/21 01:22:19;;;;;;;;;7.50;7.00;;;;;13.01;80.13;100908.19;4923926;28;45604;-76
2022/12/21 01:24:46;;;;;;;;;10.00;8.75;;;;;13.00;80.40;100895.88;4922984;28;45761;-76
2022/12/21 01:27:12;;;;;;;;;8.50;7.50;;;;;13.04;80.46;100902.88;4927973;28;45457;-76
2022/12/21 01:29:37;;;;;;;;;8.75;7.50;;;;;13.02;80.78;100902.91;4942298;28;45730;-76
2022/12/21 01:32:03;;;;;;;;;7.75;7.75;;;;;13.03;80.67;100903.78;4935719;28;45495;-75
2022/12/21 01:34:28;;;;;;;;;5.50;5.50;;;;;13.07;80.58;100918.72;4933723;28;45786;-75
2022/12/21 01:36:53;;;;;;;;;10.50;9.00;;;;;13.06;80.30;100916.06;4936004;28;45376;-75
2022/12/21 01:39:19;;;;;;;;;7.25;7.00;;;;;13.07;80.38;100915.19;4938117;28;45335;-75
2022/12/21 01:41:44;;;;;;;;;8.50;8.50;;;;;13.08;80.66;100917.81;4932715;28;45314;-75
2022/12/21 01:44:46;;;;;;;;;9.50;9.00;;;;;13.12;80.48;100919.50;4942880;28;45226;-75
2022/12/21 01:47:20;;;;;;;;;8.00;8.00;;;;;13.11;80.32;100931.00;4936437;28;45478;-76
2022/12/21 01:49:52;;;;;;;;;8.50;8.00;;;;;13.05;80.16;100931.06;4931964;28;45409;-76
2022/12/21 01:52:18;;;;;;;;;9.50;6.00;;;;;13.02;79.72;100945.19;4931228;28;45468;-76
2022/12/21 01:54:50;;;;;;;;;3.00;3.00;;;;;12.96;79.87;100941.72;4955898;28;47427;-76
2022/12/21 01:57:17;;;;;;;;;3.00;3.00;;;;;12.95;79.16;100959.34;4925888;28;45197;-75
2022/12/21 01:59:49;;;;;;;;;2.00;2.00;;;;;12.83;78.86;100955.94;4935677;28;45271;-76
2022/12/21 02:02:19;;;;;;;;;2.33;2.00;;;;;12.77;78.63;100968.31;4936552;28;45243;-76
2022/12/21 02:04:45;;;;;;;;;1.00;1.00;;;;;12.64;78.38;100950.81;4935680;28;45681;-76
2022/12/21 02:07:11;;;;;;;;;1.67;1.33;;;;;12.61;78.40;100956.13;4931524;28;45368;-76
2022/12/21 02:09:40;;;;;;;;;0.33;0.00;;;;;12.56;77.67;100968.50;4933752;28;45508;-77
2022/12/21 02:12:12;;;;;;;;;1.00;1.00;;;;;12.46;77.57;100961.56;4924628;28;45311;-76
2022/12/21 02:14:43;;;;;;;;;2.00;2.00;;;;;12.41;77.62;100963.38;4949314;28;47014;-76
2022/12/21 02:17:46;;;;;;;;;2.00;2.00;;;;;12.42;77.96;100970.41;4942109;28;45518;-75
2022/12/21 02:20:33;;;;;;;;;1.00;1.00;;;;;12.31;77.34;100967.84;4942803;28;45444;-76
2022/12/21 02:23:31;;;;;;;;;1.00;1.00;;;;;12.20;77.04;100956.47;4944192;28;45428;-76
2022/12/21 02:26:23;;;;;;;;;1.00;1.00;;;;;12.05;77.05;100947.75;4944048;28;45635;-76
2022/12/21 02:29:13;;;;;;;;;0.33;0.33;;;;;11.98;76.91;100947.84;4943799;28;45497;-78
2022/12/21 02:32:05;;;;;;;;;0.33;0.33;;;;;11.92;76.93;100956.63;4930313;28;45155;-77
2022/12/21 02:35:10;;;;;;;;;1.00;1.00;;;;;11.85;77.24;100961.06;4933772;28;45395;-75
2022/12/21 02:37:48;;;;;;;;;3.00;1.33;;;;;11.77;77.11;100956.72;4910366;28;45518;-75
2022/12/21 02:40:35;;;;;;;;;1.00;1.00;;;;;11.72;76.97;100959.38;4944006;28;45432;-75
2022/12/21 02:46:24;;;;;;;;;2.00;2.00;;;;;11.56;77.37;100947.13;4937158;28;45349;-75
2022/12/21 02:49:04;;;;;;;;;1.67;1.67;;;;;11.54;77.38;100946.25;4924295;28;45339;-75
2022/12/21 02:51:45;;;;;;;;;1.50;1.50;;;;;11.52;77.60;100963.84;4935674;28;45370;-75
2022/12/21 02:54:12;;;;;;;;;2.00;2.00;;;;;11.46;77.52;100964.75;4939061;28;45338;-75
2022/12/21 02:56:38;;;;;;;;;1.00;1.00;;;;;11.44;77.46;100970.03;4942041;28;45265;-75
2022/12/21 02:59:05;;;;;;;;;3.00;3.00;;;;;11.41;77.63;100971.78;4925407;28;47294;-75
2022/12/21 03:01:55;;;;;;;;;2.00;2.00;;;;;11.35;77.64;100958.63;4932782;28;45439;-75
2022/12/21 03:04:26;;;;;;;;;3.25;2.25;;;;;11.37;77.78;100967.44;4924271;28;45352;-76
2022/12/21 03:07:07;;;;;;;;;2.00;1.25;;;;;11.34;77.85;100964.81;4936736;28;45476;-75
2022/12/21 03:09:39;;;;;;;;;0.33;0.33;;;;;11.34;77.92;100972.72;4923995;28;46260;-76
2022/12/21 03:12:36;;;;;;;;;2.00;2.00;;;;;11.33;77.94;100981.47;4923704;28;45239;-75
2022/12/21 03:15:27;;;;;;;;;1.67;1.00;;;;;11.27;77.83;100972.72;4952084;28;45464;-75
2022/12/21 03:18:09;;;;;;;;;1.25;1.00;;;;;11.22;77.76;100973.59;4943178;28;45403;-75
2022/12/21 03:20:58;;;;;;;;;1.00;1.00;;;;;11.18;77.85;100964.84;4923940;28;45429;-75
2022/12/21 03:23:32;;;;;;;;;2.00;2.00;;;;;11.18;78.02;100977.16;4937840;28;45355;-75
2022/12/21 03:26:07;;;;;;;;;2.50;2.50;;;;;11.13;78.33;100976.28;4954567;28;45464;-75
2022/12/21 03:28:37;;;;;;;;;2.00;2.00;;;;;11.12;78.22;100977.13;4935624;28;45673;-75
2022/12/21 03:31:09;;;;;;;;;1.00;1.00;;;;;11.08;78.08;100970.13;4936060;28;45298;-75
2022/12/21 03:33:41;;;;;;;;;1.00;1.00;;;;;11.14;78.08;100983.28;4941575;28;45342;-75
2022/12/21 03:36:17;;;;;;;;;2.00;2.00;;;;;11.10;78.05;100978.94;4941317;28;45259;-76
2022/12/21 03:38:50;;;;;;;;;3.00;2.00;;;;;11.08;77.97;100976.28;4932724;28;45339;-75
2022/12/21 03:41:37;;;;;;;;;3.00;3.00;;;;;11.11;78.22;100980.66;4953954;28;47203;-75
2022/12/21 03:44:07;;;;;;;;;1.00;1.00;;;;;11.12;77.96;100979.78;4940459;28;45875;-75
2022/12/21 03:46:38;;;;;;;;;3.00;3.00;;;;;11.19;78.01;100982.41;4957736;28;45243;-75
2022/12/21 03:49:14;;;;;;;;;2.33;1.00;;;;;11.15;77.90;100970.13;4941101;28;45480;-76
2022/12/21 03:52:05;;;;;;;;;2.00;2.00;;;;;11.19;77.70;100985.03;4942484;28;45531;-75
2022/12/21 03:54:36;;;;;;;;;3.00;3.00;;;;;11.19;77.55;100979.75;4942241;28;45329;-76
2022/12/21 03:57:03;;;;;;;;;2.50;2.50;;;;;11.16;77.77;100984.19;4942257;28;45240;-75
2022/12/21 03:59:29;;;;;;;;;3.00;3.00;;;;;11.15;77.64;100985.06;4942373;28;45500;-75
2022/12/21 04:02:13;;;;;;;;;4.50;3.25;;;;;11.17;77.57;100993.81;4940658;28;45402;-75
2022/12/21 04:04:56;;;;;;;;;4.00;3.75;;;;;11.14;77.47;100986.81;4933397;28;45226;-75
2022/12/21 04:07:25;;;;;;;;;3.00;2.00;;;;;11.16;77.66;100989.44;4940533;28;45222;-75
2022/12/21 04:09:59;;;;;;;;;2.00;2.00;;;;;11.13;77.55;100985.06;4941782;28;45445;-75
2022/12/21 04:12:37;;;;;;;;;1.00;1.00;;;;;11.12;77.69;100983.31;4941744;28;45488;-75
2022/12/21 04:15:10;;;;;;;;;4.00;3.00;;;;;11.15;77.26;101001.75;4941541;28;45382;-75
2022/12/21 04:17:36;;;;;;;;;4.00;4.00;;;;;11.15;77.35;101000.88;4942442;28;45325;-75
2022/12/21 04:20:06;;;;;;;;;4.50;4.50;;;;;11.13;77.17;101000.00;4955653;28;45506;-75
2022/12/21 04:28:08;;;;;;;;;4.00;4.00;;;;;11.18;77.46;101017.53;4934278;28;45250;-75
2022/12/21 04:30:41;;;;;;;;;3.00;3.00;;;;;11.19;77.16;101011.38;4933256;28;45474;-75
2022/12/21 04:33:09;;;;;;;;;4.00;3.75;;;;;11.19;77.19;101021.94;4937472;28;45300;-75
2022/12/21 04:35:35;;;;;;;;;3.50;2.00;;;;;11.16;76.87;101007.88;4946569;28;45993;-76
2022/12/21 04:38:00;;;;;;;;;3.00;3.00;;;;;11.13;77.00;101011.41;4921414;28;45282;-75
2022/12/21 04:40:26;;;;;;;;;2.25;2.00;;;;;11.09;77.01;101007.00;4922576;28;45241;-75
2022/12/21 04:42:51;;;;;;;;;2.00;2.00;;;;;11.09;77.13;101009.63;4922354;28;45412;-76
2022/12/21 04:45:17;;;;;;;;;3.75;3.75;;;;;11.03;77.02;100999.13;4922714;28;45282;-75
2022/12/21 04:47:42;;;;;;;;;2.25;2.25;;;;;11.08;76.83;101014.94;4922763;28;45302;-75
2022/12/21 04:50:08;;;;;;;;;2.75;2.75;;;;;11.01;76.96;101006.13;4921454;28;45457;-75
2022/12/21 04:52:33;;;;;;;;;2.00;2.00;;;;;10.94;76.73;101010.56;4953834;28;47111;-76
2022/12/21 04:54:59;;;;;;;;;2.00;2.00;;;;;10.89;76.83;101012.31;4931071;28;45372;-76
2022/12/21 04:57:24;;;;;;;;;2.00;1.00;;;;;10.84;76.85;101006.16;4922213;28;45876;-75
2022/12/21 04:59:50;;;;;;;;;4.75;3.75;;;;;10.82;76.72;101019.34;4922576;28;45408;-75
2022/12/21 05:02:15;;;;;;;;;6.00;6.00;;;;;10.76;76.76;101011.44;4936604;28;45486;-75
2022/12/21 05:04:40;;;;;;;;;4.50;3.50;;;;;10.76;76.76;101014.06;4940215;28;45444;-75
2022/12/21 05:07:07;;;;;;;;;6.00;6.00;;;;;10.73;76.90;101023.72;4936774;28;45476;-75
2022/12/21 05:09:32;;;;;;;;;4.00;4.00;;;;;10.66;76.96;101025.47;4932518;28;45378;-75
2022/12/21 05:11:58;;;;;;;;;7.50;6.50;;;;;10.64;77.13;101026.34;4924677;28;45436;-76
2022/12/21 05:14:23;;;;;;;;;3.50;3.50;;;;;10.58;76.94;101019.31;4922080;28;45321;-75
2022/12/21 05:16:49;;;;;;;;;5.00;5.00;;;;;10.61;77.09;101037.75;4938646;28;45167;-75
2022/12/21 05:19:15;;;;;;;;;3.00;3.00;;;;;10.50;77.26;101026.34;4933166;28;45634;-75
2022/12/21 05:21:41;;;;;;;;;3.50;3.00;;;;;10.46;77.10;101017.56;4922099;28;46337;-75
2022/12/21 05:24:07;;;;;;;;;4.00;4.00;;;;;10.50;77.06;101035.09;4922028;28;45260;-75
2022/12/21 05:26:33;;;;;;;;;3.75;2.75;;;;;10.47;77.19;101031.59;4933600;28;45433;-75
2022/12/21 05:28:58;;;;;;;;;4.00;4.00;;;;;10.37;77.17;101023.72;4940617;28;45162;-76
2022/12/21 05:31:24;;;;;;;;;4.00;3.00;;;;;10.46;77.13;101045.66;4941156;28;45428;-75
2022/12/21 05:33:51;;;;;;;;;4.50;4.50;;;;;10.43;77.50;101032.50;4932466;28;45413;-75
2022/12/21 05:36:17;;;;;;;;;4.50;3.25;;;;;10.37;77.38;101028.97;4936145;28;45546;-75
2022/12/21 05:38:43;;;;;;;;;4.25;3.00;;;;;10.35;77.48;101022.81;4931012;28;45348;-75
2022/12/21 05:41:11;;;;;;;;;6.75;4.00;;;;;10.35;77.46;101032.47;4925328;28;45457;-75
2022/12/21 05:43:36;;;;;;;;;1.75;1.75;;;;;10.33;77.37;101028.97;4921725;28;45408;-75
2022/12/21 05:46:04;;;;;;;;;6.00;4.00;;;;;10.30;77.44;101035.09;4921714;28;45281;-75
2022/12/21 05:48:30;;;;;;;;;3.00;3.00;;;;;10.24;77.47;101032.41;4920582;28;45579;-75
2022/12/21 05:50:57;;;;;;;;;3.00;3.00;;;;;10.22;77.66;101031.53;4923358;28;46119;-75
2022/12/21 05:53:22;;;;;;;;;2.25;1.50;;;;;10.16;77.47;101026.25;4940938;28;45361;-75
2022/12/21 05:55:47;;;;;;;;;3.75;2.25;;;;;10.15;77.56;101035.88;4922864;28;45323;-76
2022/12/21 05:58:14;;;;;;;;;2.00;2.00;;;;;10.08;77.48;101026.25;4946676;28;45366;-75
2022/12/21 06:00:39;;;;;;;;;3.50;2.50;;;;;10.13;77.60;101034.13;4927972;28;45264;-75
2022/12/21 06:03:04;;;;;;;;;4.50;3.00;;;;;10.09;77.56;101027.97;4940965;28;45340;-75
2022/12/21 06:05:34;;;;;;;;;3.00;1.75;;;;;10.05;77.27;101027.97;4928020;28;45558;-75
2022/12/21 06:07:59;;;;;;;;;15.75;15.75;;;;;10.03;77.32;101027.97;4942808;28;45470;-75
2022/12/21 06:10:25;;;;;;;;;5.50;3.00;;;;;10.03;77.27;101032.38;4930746;28;45676;-75
2022/12/21 06:12:50;;;;;;;;;4.25;4.25;;;;;10.04;77.24;101042.88;4932530;28;45357;-76
2022/12/21 06:15:15;;;;;;;;;2.25;1.25;;;;;9.98;77.38;101024.44;4940973;28;45500;-75
2022/12/21 06:17:41;;;;;;;;;2.00;2.00;;;;;10.02;77.25;101035.84;4942874;28;46298;-75
2022/12/21 06:20:07;;;;;;;;;3.00;3.00;;;;;9.99;77.33;101030.59;4943949;28;46971;-75
2022/12/21 06:22:34;;;;;;;;;2.50;2.50;;;;;9.95;77.29;101032.34;4933743;28;45390;-76
2022/12/21 06:24:59;;;;;;;;;1.50;1.50;;;;;9.95;77.16;101037.59;4958619;28;45434;-76
2022/12/21 06:27:25;;;;;;;;;2.50;2.50;;;;;9.93;77.45;101034.94;4941225;28;45298;-76
2022/12/21 06:29:50;;;;;;;;;2.50;2.50;;;;;9.98;77.22;101050.75;4940783;28;45267;-76
2022/12/21 06:32:16;;;;;;;;;2.50;2.00;;;;;9.90;77.20;101045.47;4932617;28;45268;-76
2022/12/21 06:34:41;;;;;;;;;2.75;2.00;;;;;9.96;77.22;101056.88;4940745;28;45524;-76
2022/12/21 06:37:06;;;;;;;;;6.00;6.00;;;;;9.94;77.18;101052.50;4929531;28;45216;-76
2022/12/21 06:39:32;;;;;;;;;2.25;2.25;;;;;9.95;77.29;101053.38;4951974;28;46828;-76
2022/12/21 06:41:57;;;;;;;;;1.50;1.50;;;;;9.87;77.13;101050.72;4933690;28;45223;-76
2022/12/21 06:44:22;;;;;;;;;2.50;1.75;;;;;9.88;77.19;101054.22;4927811;28;45497;-76
2022/12/21 06:46:48;;;;;;;;;2.50;2.50;;;;;9.88;77.28;101057.72;4924518;28;45215;-76
2022/12/21 06:49:14;;;;;;;;;2.25;2.25;;;;;9.79;77.20;101038.41;4923005;28;48320;-76
2022/12/21 06:51:39;;;;;;;;;4.75;2.75;;;;;9.81;77.32;101053.31;4933504;28;45337;-76
2022/12/21 06:54:04;;;;;;;;;2.00;2.00;;;;;9.75;77.50;101045.38;4940577;28;45403;-75
2022/12/21 06:56:31;;;;;;;;;3.75;2.00;;;;;9.71;77.32;101039.25;4924218;28;45340;-76
2022/12/21 06:58:57;;;;;;;;;3.00;2.00;;;;;9.70;77.38;101047.13;4954237;28;47418;-76
2022/12/21 07:01:25;;;;;;;;;4.25;2.75;;;;;9.64;77.54;101037.44;4941445;28;45436;-76
2022/12/21 07:03:51;;;;;;;;;4.00;3.00;;;;;9.71;77.40;101054.16;4939846;28;45219;-76
2022/12/21 07:06:18;;;;;;;;;3.75;3.00;;;;;9.67;77.38;101058.50;4934017;28;45491;-76
2022/12/21 07:08:44;;;;;;;;;5.25;4.75;;;;;9.66;77.64;101062.00;4941672;28;47255;-77
2022/12/21 07:11:12;;;;;;;;;6.25;4.00;;;;;9.64;77.59;101061.09;4954542;28;45251;-76
2022/12/21 07:13:40;;;;;;;;;5.00;3.75;;;;;9.65;77.65;101061.97;4927974;28;45465;-76
2022/12/21 07:16:06;;;;;;;;;3.00;3.00;;;;;9.56;77.54;101054.94;4940790;28;45326;-76
2022/12/21 07:18:32;;;;;;;;;3.25;3.25;;;;;9.61;77.74;101068.09;4940770;28;46463;-76
2022/12/21 07:21:03;;;;;;;;;4.00;3.50;;;;;9.63;77.61;101072.50;4948722;28;45247;-76
2022/12/21 07:23:30;;;;;;;;;3.75;3.00;;;;;9.65;77.51;101064.59;4936830;28;45445;-77
2022/12/21 07:25:56;;;;;;;;;4.00;3.00;;;;;9.58;77.34;101055.84;4922355;28;45196;-77
2022/12/21 07:28:22;;;;;;;;;3.75;3.75;;;;;9.61;77.54;101052.34;4952049;28;46222;-77
2022/12/21 07:30:48;;;;;;;;;3.50;3.50;;;;;9.66;77.25;101059.38;4932558;28;45174;-77
2022/12/21 07:33:18;;;;;;;;;2.00;2.00;;;;;9.64;77.29;101062.88;4936530;28;45242;-77
2022/12/21 07:35:44;;;;;;;;;3.50;3.25;;;;;9.63;77.25;101069.88;4935962;28;45555;-76
2022/12/21 07:38:09;;;;;;;;;2.75;2.75;;;;;9.66;77.32;101079.53;4924949;28;46302;-76
2022/12/21 07:40:35;;;;;;;;;4.50;3.00;;;;;9.72;77.31;101093.56;4934323;28;45318;-76
2022/12/21 07:43:00;;;;;;;;;7.25;5.00;;;;;9.69;77.27;101079.53;4957267;28;45479;-76
2022/12/21 07:45:26;;;;;;;;;2.00;1.75;;;;;9.75;77.20;101089.22;4931787;28;45508;-77
2022/12/21 07:47:55;;;;;;;;;5.50;5.50;;;;;9.77;77.14;101101.50;4921769;28;47864;-77
2022/12/21 07:50:20;;;;;;;;;4.00;4.00;;;;;9.80;76.94;101100.63;4933362;28;45432;-77
2022/12/21 07:52:46;;;;;;;;;3.50;2.75;;;;;9.75;77.03;101081.31;4924331;28;45463;-77
2022/12/21 07:55:11;;;;;;;;;4.75;3.50;;;;;9.80;76.91;101092.75;4923362;28;45598;-78
2022/12/21 07:57:37;;;;;;;;;8.75;4.50;;;;;9.82;77.06;101110.28;4935543;28;46304;-77
2022/12/21 08:00:03;;;;;;;;;5.00;4.00;;;;;9.84;76.80;101105.06;4923123;28;45409;-77
2022/12/21 08:02:29;;;;;;;;;4.50;3.75;;;;;9.92;76.93;101114.72;4941347;28;46412;-77
2022/12/21 08:04:55;;;;;;;;;8.00;6.00;;;;;9.91;76.66;101098.94;4937441;28;45552;-77
2022/12/21 08:07:20;;;;;;;;;4.50;3.25;;;;;9.94;76.79;101101.56;4936775;28;47256;-77
2022/12/21 08:09:45;;;;;;;;;3.50;3.50;;;;;9.96;76.73;101091.06;4937144;28;45574;-77
2022/12/21 08:12:11;;;;;;;;;3.25;3.25;;;;;10.03;76.45;101100.75;4937255;28;45460;-77
2022/12/21 08:14:36;;;;;;;;;4.25;3.25;;;;;10.07;76.51;101105.13;4935506;28;45427;-77
2022/12/21 08:17:02;;;;;;;;;4.75;4.50;;;;;10.10;76.49;101098.16;4941148;28;45389;-77
2022/12/21 08:19:27;;;;;;;;;4.25;4.25;;;;;10.15;76.31;101106.91;4941106;28;45603;-77
2022/12/21 08:21:53;;;;;;;;;2.75;2.75;;;;;10.18;76.18;101099.91;4939956;28;45389;-77
2022/12/21 08:24:18;;;;;;;;;2.00;2.00;;;;;10.18;76.07;101097.28;4941356;28;45424;-77
2022/12/21 08:26:44;;;;;;;;;4.75;3.00;;;;;10.24;75.96;101102.59;4937575;28;47241;-77
2022/12/21 08:29:13;;;;;;;;;4.25;3.00;;;;;10.37;75.80;101109.66;4941033;28;45523;-77
2022/12/21 08:31:38;;;;;;;;;1.00;1.00;;;;;10.42;75.66;101099.16;4940237;28;45531;-76
2022/12/21 08:34:04;;;;;;;;;3.25;2.50;;;;;10.42;75.56;101078.09;4939972;28;45466;-77
2022/12/21 08:36:30;;;;;;;;;3.25;3.25;;;;;10.38;75.27;101075.47;4954161;28;47104;-77
2022/12/21 08:38:57;;;;;;;;;3.00;2.75;;;;;10.40;75.39;101071.94;4931436;28;45358;-76
2022/12/21 08:41:22;;;;;;;;;2.00;1.75;;;;;10.52;75.31;101093.91;4922156;28;45302;-75
2022/12/21 08:43:47;;;;;;;;;2.00;2.00;;;;;10.54;75.20;101100.06;4921952;28;45596;-76
2022/12/21 08:46:13;;;;;;;;;2.00;2.00;;;;;10.56;74.77;101103.59;4936732;28;48191;-75
2022/12/21 08:48:39;;;;;;;;;3.00;3.00;;;;;10.58;74.77;101107.09;4922170;28;45203;-76
2022/12/21 08:51:07;;;;;;;;;3.50;1.00;;;;;10.68;74.74;101117.63;4925286;28;45499;-76
2022/12/21 08:53:34;;;;;;;;;3.25;2.25;;;;;10.69;74.78;101114.13;4939980;28;45513;-75
2022/12/21 08:56:00;;;;;;;;;1.50;1.50;;;;;10.67;74.79;101105.38;4942632;28;48159;-75
2022/12/21 08:58:26;;;;;;;;;3.75;3.75;;;;;10.62;74.41;101086.03;4939503;28;45242;-75
2022/12/21 09:00:52;;;;;;;;;3.00;3.00;;;;;10.66;74.32;101088.66;4928235;28;45312;-76
2022/12/21 09:03:19;;;;;;;;;3.75;3.25;;;;;10.70;74.35;101089.56;4955870;28;45558;-76
2022/12/21 09:05:45;;;;;;;;;3.00;2.00;;;;;10.72;74.51;101096.59;4922502;28;47448;-76
2022/12/21 09:08:11;;;;;;;;;4.00;2.00;;;;;10.72;74.55;101086.06;4945412;28;45954;-76
2022/12/21 09:10:36;;;;;;;;;2.00;2.00;;;;;10.74;74.44;101088.69;4934499;28;45352;-76
2022/12/21 09:13:02;;;;;;;;;14.00;12.50;;;;;10.75;74.17;101087.81;4933634;28;45523;-76
2022/12/21 09:15:27;;;;;;;;;5.00;5.00;;;;;10.79;74.00;101100.09;4955076;28;48730;-77
2022/12/21 09:17:53;;;;;;;;;4.00;3.00;;;;;10.78;74.11;101095.72;4952425;28;45440;-76
2022/12/21 09:20:19;;;;;;;;;2.00;2.00;;;;;10.78;74.00;101099.22;4933148;28;45341;-75
2022/12/21 09:22:44;;;;;;;;;1.50;1.00;;;;;10.77;74.06;101091.31;4930943;28;45427;-76
2022/12/21 09:25:09;;;;;;;;;3.25;3.25;;;;;10.79;74.10;101084.28;4922305;28;47363;-77
2022/12/21 09:27:35;;;;;;;;;3.50;3.50;;;;;10.88;73.98;101105.41;4931424;28;45305;-76
2022/12/21 09:30:01;;;;;;;;;4.00;4.00;;;;;10.92;74.12;101119.44;4939958;28;45173;-76
2022/12/21 09:32:26;;;;;;;;;7.00;3.75;;;;;10.87;74.18;101106.25;4955104;28;45534;-76
2022/12/21 09:34:52;;;;;;;;;4.00;2.00;;;;;10.92;74.08;101116.81;4936531;28;45430;-77
2022/12/21 09:37:17;;;;;;;;;3.00;3.00;;;;;10.96;73.61;101111.53;4931108;28;45329;-78
2022/12/21 09:39:43;;;;;;;;;4.00;3.00;;;;;10.95;73.77;101109.75;4936667;28;45179;-76
2022/12/21 09:42:27;;;;;;;;;3.00;2.50;;;;;11.02;74.02;101131.75;4922089;28;45422;-77
2022/12/21 09:45:09;;;;;;;;;4.00;3.00;;;;;11.03;74.08;101129.09;4940527;28;47191;-77
2022/12/21 09:47:47;;;;;;;;;3.00;2.50;;;;;11.07;74.15;101123.84;4925369;28;45353;-77
2022/12/21 09:50:23;;;;;;;;;4.50;3.50;;;;;11.04;74.22;101114.19;4932230;28;45556;-77
2022/12/21 09:52:57;;;;;;;;;5.75;3.00;;;;;11.11;74.19;101133.50;4942727;28;45191;-78
2022/12/21 09:55:25;;;;;;;;;4.00;4.00;;;;;11.12;74.17;101138.78;4942331;28;46348;-77
2022/12/21 09:57:52;;;;;;;;;8.50;7.00;;;;;11.17;73.98;101117.69;4930543;28;45392;-81
2022/12/21 10:00:23;;;;;;;;;4.75;3.75;;;;;11.27;74.17;101128.22;4943235;28;45311;-78
2022/12/21 10:02:57;;;;;;;;;4.00;4.00;;;;;11.40;74.06;101144.91;4942818;28;45515;-77
2022/12/21 10:05:32;;;;;;;;;2.25;2.00;;;;;11.50;73.98;101140.50;4941644;28;47194;-78
2022/12/21 10:08:19;;;;;;;;;3.75;3.50;;;;;11.55;73.63;101154.56;4942473;28;45544;-80
2022/12/21 10:11:02;;;;;;;;;5.25;5.25;;;;;11.58;73.80;101149.28;4931902;28;45479;-79
2022/12/21 10:13:30;;;;;;;;;7.75;5.00;;;;;11.57;73.47;101155.44;4930616;28;45187;-76
2022/12/21 10:16:20;;;;;;;;;5.00;4.00;;;;;11.57;73.50;101144.00;4940738;28;46504;-75
2022/12/21 10:18:53;;;;;;;;;5.75;4.75;;;;;11.55;73.43;101119.41;4930635;28;45514;-75
2022/12/21 10:21:51;;;;;;;;;5.00;5.00;;;;;11.55;73.45;101114.16;4939435;28;45360;-76
2022/12/21 10:24:34;;;;;;;;;6.25;4.00;;;;;11.53;73.53;101095.69;4946889;28;45646;-77
2022/12/21 10:27:16;;;;;;;;;6.50;5.00;;;;;11.59;73.34;101106.22;4942278;28;46249;-76
2022/12/21 10:29:48;;;;;;;;;6.25;4.75;;;;;11.60;73.48;101112.34;4927042;28;45641;-77
2022/12/21 10:32:14;;;;;;;;;4.50;2.75;;;;;11.56;73.56;101106.22;4933704;28;45260;-77
2022/12/21 10:34:46;;;;;;;;;4.75;4.50;;;;;11.61;73.59;101112.38;4932362;28;46321;-79
2022/12/21 10:37:18;;;;;;;;;5.75;4.50;;;;;11.57;73.46;101097.41;4948037;28;46125;-79
2022/12/21 10:39:45;;;;;;;;;4.75;4.75;;;;;11.61;73.47;101099.19;4937300;28;45393;-79
2022/12/21 10:42:34;;;;;;;;;3.50;3.50;;;;;11.57;73.55;101081.59;4930950;28;45270;-79
2022/12/21 10:45:00;;;;;;;;;3.00;3.00;;;;;11.59;73.34;101071.06;4932135;28;45448;-79
2022/12/21 10:47:25;;;;;;;;;5.00;5.00;;;;;11.66;73.32;101076.31;4929797;28;45363;-78
2022/12/21 10:50:06;;;;;;;;;6.25;6.00;;;;;11.72;73.52;101074.53;4935414;28;45528;-79
2022/12/21 10:52:36;;;;;;;;;6.00;6.00;;;;;11.75;73.43;101063.97;4938610;28;45601;-79
2022/12/21 10:55:04;;;;;;;;;5.75;5.50;;;;;11.73;73.38;101048.13;4938451;28;45446;-77
2022/12/21 10:57:33;;;;;;;;;3.00;3.00;;;;;11.75;73.69;101043.75;4938956;28;47867;-79
2022/12/21 11:00:20;;;;;;;;;3.75;3.50;;;;;11.80;73.48;101041.09;4930447;28;45297;-79
2022/12/21 11:02:47;;;;;;;;;3.25;3.00;;;;;11.77;73.29;101034.06;4942680;28;45448;-79
2022/12/21 11:05:28;;;;;;;;;6.50;4.75;;;;;11.86;73.34;101041.97;4929527;28;45360;-79
2022/12/21 11:07:53;;;;;;;;;4.75;4.75;;;;;11.88;72.99;101034.06;4931917;28;45522;-79
2022/12/21 11:10:27;;;;;;;;;8.50;6.00;;;;;11.86;73.22;101023.50;4926745;28;45366;-79
2022/12/21 11:12:52;;;;;;;;;4.50;4.00;;;;;11.83;73.11;101020.84;4941027;28;45269;-79
2022/12/21 11:15:21;;;;;;;;;3.25;3.25;;;;;11.90;72.99;101017.34;4939862;28;45532;-78
2022/12/21 11:17:46;;;;;;;;;6.75;6.00;;;;;12.01;73.19;101014.66;4940357;28;46361;-78
2022/12/21 11:20:20;;;;;;;;;7.50;5.50;;;;;12.26;73.21;101018.00;4942554;28;45389;-78
2022/12/21 11:22:47;;;;;;;;;5.00;5.00;;;;;12.44;73.06;101009.09;4932572;28;45317;-79
2022/12/21 11:25:17;;;;;;;;;5.75;5.25;;;;;12.93;72.94;101013.09;4939951;28;45505;-78
2022/12/21 11:27:49;;;;;;;;;6.50;6.50;;;;;13.26;72.02;101009.31;4941777;28;45320;-78
2022/12/21 11:30:26;;;;;;;;;5.25;3.00;;;;;13.44;71.55;101006.47;4935384;28;45363;-79
2022/12/21 11:32:55;;;;;;;;;4.75;4.50;;;;;13.60;71.13;101008.91;4935286;28;45252;-79
2022/12/21 11:35:27;;;;;;;;;8.67;6.33;;;;;13.79;70.30;100997.22;4940968;28;45562;-78
2022/12/21 11:37:55;;;;;;;;;5.75;5.50;;;;;13.69;69.93;100992.94;4943361;28;46940;-79
2022/12/21 11:40:26;;;;;;;;;5.75;5.75;;;;;13.53;69.40;100978.16;4931940;28;45346;-80
2022/12/21 11:43:00;;;;;;;;;6.00;4.00;;;;;13.46;69.41;100979.97;4924858;28;45335;-79
2022/12/21 11:45:40;;;;;;;;;4.67;4.67;;;;;13.34;69.41;100967.78;4923231;28;45255;-79
2022/12/21 11:48:58;;;;;;;;;9.50;6.75;;;;;13.19;69.02;100970.56;4922862;28;46247;-78